createdAt,value
2019-01-24T00:00:31.873Z,26.42
2019-01-24T00:01:31.860Z,26.36
2019-01-24T00:02:31.863Z,26.54
2019-01-24T00:03:31.837Z,26.55
2019-01-24T00:04:31.826Z,26.54
2019-01-24T00:05:31.814Z,26.59
2019-01-24T00:06:31.803Z,26.54
2019-01-24T00:07:31.804Z,26.52
2019-01-24T00:08:31.781Z,26.42
2019-01-24T00:09:31.770Z,26.40
2019-01-24T00:10:31.758Z,26.37
2019-01-24T00:11:31.747Z,26.42
2019-01-24T00:12:31.736Z,26.39
2019-01-24T00:13:31.735Z,26.49
2019-01-24T00:14:31.714Z,26.49
2019-01-24T00:15:31.704Z,26.57
2019-01-24T00:16:31.690Z,26.54
2019-01-24T00:17:31.686Z,26.40
2019-01-24T00:18:31.750Z,26.35
2019-01-24T00:19:31.657Z,26.25
2019-01-24T00:20:31.647Z,26.27
2019-01-24T00:21:31.638Z,26.24
2019-01-24T00:22:31.626Z,26.20
2019-01-24T00:23:31.627Z,26.11
2019-01-24T00:24:31.602Z,26.11
2019-01-24T00:25:31.590Z,26.08
2019-01-24T00:26:31.580Z,26.04
2019-01-24T00:27:31.571Z,26.02
2019-01-24T00:28:31.567Z,25.98
2019-01-24T00:29:31.548Z,25.93
2019-01-24T00:30:31.534Z,25.94
2019-01-24T00:31:31.523Z,26.02
2019-01-24T00:32:31.514Z,25.86
2019-01-24T00:33:31.512Z,25.86
2019-01-24T00:34:31.490Z,25.82
2019-01-24T00:35:31.480Z,25.80
2019-01-24T00:36:31.469Z,25.84
2019-01-24T00:37:31.458Z,25.77
2019-01-24T00:38:31.456Z,25.75
2019-01-24T00:39:31.435Z,25.62
2019-01-24T00:40:31.426Z,25.53
2019-01-24T00:41:31.413Z,25.57
2019-01-24T00:42:31.407Z,25.43
2019-01-24T00:43:31.397Z,25.49
2019-01-24T00:44:31.391Z,25.49
2019-01-24T00:45:31.372Z,25.49
2019-01-24T00:46:31.360Z,25.47
2019-01-24T00:47:31.350Z,25.46
2019-01-24T00:48:31.339Z,25.57
2019-01-24T00:49:31.336Z,25.61
2019-01-24T00:50:31.316Z,25.47
2019-01-24T00:51:31.309Z,25.54
2019-01-24T00:52:31.294Z,25.54
2019-01-24T00:53:31.284Z,25.64
2019-01-24T00:54:31.282Z,25.61
2019-01-24T00:55:31.265Z,25.68
2019-01-24T00:56:31.252Z,25.75
2019-01-24T00:57:31.242Z,25.68
2019-01-24T00:58:31.229Z,25.72
2019-01-24T00:59:31.234Z,25.74
2019-01-24T01:00:31.211Z,25.72
2019-01-24T01:01:31.199Z,25.69
2019-01-24T01:02:31.193Z,25.79
2019-01-24T01:03:31.175Z,25.74
2019-01-24T01:04:31.164Z,25.57
2019-01-24T01:05:31.162Z,25.61
2019-01-24T01:06:31.146Z,25.59
2019-01-24T01:07:31.133Z,25.54
2019-01-24T01:08:31.120Z,25.49
2019-01-24T01:09:31.109Z,25.47
2019-01-24T01:10:31.109Z,25.53
2019-01-24T01:11:31.088Z,25.47
2019-01-24T01:12:31.079Z,25.31
2019-01-24T01:13:31.066Z,25.31
2019-01-24T01:14:31.059Z,25.32
2019-01-24T01:15:31.055Z,25.46
2019-01-24T01:16:31.032Z,25.42
2019-01-24T01:17:31.025Z,25.34
2019-01-24T01:18:31.011Z,25.31
2019-01-24T01:19:31.006Z,25.37
2019-01-24T01:20:30.999Z,25.44
2019-01-24T01:21:30.977Z,25.43
2019-01-24T01:22:30.965Z,25.44
2019-01-24T01:23:30.954Z,25.34
2019-01-24T01:24:30.943Z,25.39
2019-01-24T01:25:31.041Z,25.34
2019-01-24T01:26:30.924Z,25.37
2019-01-24T01:27:30.912Z,25.44
2019-01-24T01:28:30.899Z,25.43
2019-01-24T01:29:30.890Z,25.30
2019-01-24T01:30:30.876Z,25.28
2019-01-24T01:31:30.875Z,25.31
2019-01-24T01:32:30.856Z,25.28
2019-01-24T01:33:30.845Z,25.30
2019-01-24T01:34:36.175Z,25.30
2019-01-24T01:35:31.820Z,25.31
2019-01-24T01:36:30.819Z,25.24
2019-01-24T01:37:30.805Z,25.13
2019-01-24T01:38:30.789Z,25.17
2019-01-24T01:39:30.778Z,25.20
2019-01-24T01:40:30.765Z,25.25
2019-01-24T01:41:30.763Z,25.22
2019-01-24T01:42:30.743Z,25.24
2019-01-24T01:43:30.733Z,25.28
2019-01-24T01:44:30.721Z,25.22
2019-01-24T01:45:30.708Z,25.22
2019-01-24T01:46:30.706Z,25.17
2019-01-24T01:47:30.686Z,25.19
2019-01-24T01:48:30.676Z,25.16
2019-01-24T01:49:30.667Z,25.15
2019-01-24T01:50:30.653Z,25.13
2019-01-24T01:51:30.652Z,25.10
2019-01-24T01:52:30.633Z,25.17
2019-01-24T01:53:30.621Z,25.12
2019-01-24T01:54:30.609Z,25.07
2019-01-24T01:55:30.600Z,25.06
2019-01-24T01:56:30.599Z,25.12
2019-01-24T01:57:30.575Z,25.09
2019-01-24T01:58:30.565Z,25.07
2019-01-24T01:59:30.553Z,25.06
2019-01-24T02:00:30.543Z,25.07
2019-01-24T02:01:30.533Z,25.02
2019-01-24T02:02:30.530Z,24.98
2019-01-24T02:03:30.510Z,24.98
2019-01-24T02:04:30.501Z,25.07
2019-01-24T02:05:30.487Z,25.05
2019-01-24T02:06:30.477Z,25.02
2019-01-24T02:07:30.475Z,24.90
2019-01-24T02:08:30.454Z,24.94
2019-01-24T02:09:30.441Z,24.88
2019-01-24T02:10:30.431Z,24.82
2019-01-24T02:11:30.421Z,24.87
2019-01-24T02:12:30.416Z,24.82
2019-01-24T02:13:30.399Z,24.85
2019-01-24T02:14:30.391Z,24.85
2019-01-24T02:15:30.377Z,24.85
2019-01-24T02:16:30.364Z,24.83
2019-01-24T02:17:30.372Z,24.87
2019-01-24T02:18:30.341Z,24.80
2019-01-24T02:19:30.330Z,24.79
2019-01-24T02:20:30.321Z,24.80
2019-01-24T02:21:30.307Z,24.77
2019-01-24T02:22:30.296Z,24.75
2019-01-24T02:23:30.294Z,24.75
2019-01-24T02:24:30.276Z,24.67
2019-01-24T02:25:30.263Z,24.76
2019-01-24T02:26:30.253Z,24.68
2019-01-24T02:27:30.243Z,24.68
2019-01-24T02:28:30.243Z,24.63
2019-01-24T02:29:30.220Z,24.61
2019-01-24T02:30:30.213Z,24.69
2019-01-24T02:31:30.196Z,24.67
2019-01-24T02:32:30.185Z,24.64
2019-01-24T02:33:30.189Z,24.68
2019-01-24T02:34:30.163Z,24.60
2019-01-24T02:35:30.151Z,24.59
2019-01-24T02:36:30.142Z,24.59
2019-01-24T02:37:30.132Z,24.63
2019-01-24T02:38:30.119Z,24.69
2019-01-24T02:39:30.119Z,24.67
2019-01-24T02:40:30.098Z,24.60
2019-01-24T02:41:30.085Z,24.54
2019-01-24T02:42:30.075Z,24.59
2019-01-24T02:43:30.063Z,24.56
2019-01-24T02:44:30.062Z,24.47
2019-01-24T02:45:30.041Z,24.57
2019-01-24T02:46:30.032Z,24.47
2019-01-24T02:47:30.019Z,24.32
2019-01-24T02:48:30.007Z,24.35
2019-01-24T02:49:30.007Z,24.32
2019-01-24T02:50:29.985Z,24.29
2019-01-24T02:51:29.977Z,24.24
2019-01-24T02:52:29.963Z,24.13
2019-01-24T02:53:29.950Z,24.16
2019-01-24T02:54:29.949Z,24.19
2019-01-24T02:55:29.930Z,24.00
2019-01-24T02:56:29.917Z,24.12
2019-01-24T02:57:29.906Z,24.14
2019-01-24T02:58:29.897Z,24.16
2019-01-24T02:59:29.893Z,24.17
2019-01-24T03:00:29.873Z,24.19
2019-01-24T03:01:29.863Z,24.14
2019-01-24T03:02:29.852Z,24.22
2019-01-24T03:03:29.841Z,24.02
2019-01-24T03:04:29.843Z,24.16
2019-01-24T03:05:29.818Z,24.14
2019-01-24T03:06:29.805Z,24.10
2019-01-24T03:07:29.799Z,24.20
2019-01-24T03:08:29.790Z,24.17
2019-01-24T03:09:29.772Z,24.41
2019-01-24T03:10:29.772Z,24.34
2019-01-24T03:11:29.751Z,24.39
2019-01-24T03:12:29.738Z,24.42
2019-01-24T03:13:29.730Z,24.47
2019-01-24T03:14:29.716Z,24.44
2019-01-24T03:15:29.717Z,24.39
2019-01-24T03:16:29.696Z,24.49
2019-01-24T03:17:29.684Z,24.35
2019-01-24T03:18:29.677Z,24.34
2019-01-24T03:19:29.662Z,24.34
2019-01-24T03:20:29.659Z,24.39
2019-01-24T03:21:29.640Z,24.39
2019-01-24T03:22:29.628Z,24.38
2019-01-24T03:23:29.616Z,24.35
2019-01-24T03:24:29.605Z,24.34
2019-01-24T03:25:29.605Z,24.31
2019-01-24T03:26:29.583Z,24.37
2019-01-24T03:27:29.571Z,24.35
2019-01-24T03:28:29.561Z,24.41
2019-01-24T03:29:29.550Z,24.35
2019-01-24T03:30:29.556Z,24.23
2019-01-24T03:31:29.530Z,24.38
2019-01-24T03:32:29.522Z,24.24
2019-01-24T03:33:29.505Z,24.34
2019-01-24T03:34:29.494Z,24.38
2019-01-24T03:35:29.482Z,24.38
2019-01-24T03:36:29.486Z,24.37
2019-01-24T03:37:29.460Z,24.38
2019-01-24T03:38:29.453Z,24.37
2019-01-24T03:39:29.438Z,24.37
2019-01-24T03:40:29.430Z,24.37
2019-01-24T03:41:29.428Z,24.32
2019-01-24T03:42:29.405Z,24.35
2019-01-24T03:43:29.393Z,24.35
2019-01-24T03:44:29.385Z,24.32
2019-01-24T03:45:29.372Z,24.34
2019-01-24T03:46:29.377Z,24.34
2019-01-24T03:47:29.350Z,24.29
2019-01-24T03:48:29.345Z,24.34
2019-01-24T03:49:29.326Z,24.29
2019-01-24T03:50:29.316Z,24.39
2019-01-24T03:51:29.306Z,24.20
2019-01-24T03:52:29.303Z,24.31
2019-01-24T03:53:29.286Z,24.23
2019-01-24T03:54:29.273Z,24.23
2019-01-24T03:55:29.260Z,24.17
2019-01-24T03:56:29.249Z,24.31
2019-01-24T03:57:29.248Z,24.27
2019-01-24T03:58:29.227Z,24.27
2019-01-24T03:59:29.217Z,24.26
2019-01-24T04:00:29.205Z,24.19
2019-01-24T04:01:29.193Z,24.19
2019-01-24T04:02:29.195Z,24.27
2019-01-24T04:03:29.176Z,24.29
2019-01-24T04:04:29.160Z,24.23
2019-01-24T04:05:29.150Z,24.14
2019-01-24T04:06:29.138Z,24.24
2019-01-24T04:07:29.134Z,24.16
2019-01-24T04:08:29.116Z,24.14
2019-01-24T04:09:29.110Z,24.13
2019-01-24T04:10:29.092Z,24.27
2019-01-24T04:11:29.081Z,24.16
2019-01-24T04:12:29.079Z,24.14
2019-01-24T04:13:29.059Z,24.17
2019-01-24T04:14:29.053Z,24.17
2019-01-24T04:15:29.039Z,24.14
2019-01-24T04:16:29.028Z,24.13
2019-01-24T04:17:29.023Z,24.14
2019-01-24T04:18:29.004Z,24.19
2019-01-24T04:19:28.994Z,24.04
2019-01-24T04:20:28.983Z,24.13
2019-01-24T04:21:28.971Z,24.14
2019-01-24T04:22:28.972Z,24.16
2019-01-24T04:23:28.948Z,24.13
2019-01-24T04:24:28.937Z,24.13
2019-01-24T04:25:28.929Z,24.07
2019-01-24T04:26:28.914Z,24.10
2019-01-24T04:27:28.904Z,24.13
2019-01-24T04:28:28.902Z,24.01
2019-01-24T04:29:28.881Z,24.10
2019-01-24T04:30:28.874Z,24.10
2019-01-24T04:31:28.859Z,24.01
2019-01-24T04:32:28.851Z,24.19
2019-01-24T04:33:28.846Z,23.97
2019-01-24T04:34:28.825Z,24.14
2019-01-24T04:35:28.818Z,24.10
2019-01-24T04:36:28.806Z,24.12
2019-01-24T04:37:28.794Z,23.95
2019-01-24T04:38:28.789Z,24.12
2019-01-24T04:39:28.770Z,24.13
2019-01-24T04:40:28.759Z,24.07
2019-01-24T04:41:28.750Z,24.12
2019-01-24T04:42:28.738Z,23.97
2019-01-24T04:43:28.735Z,24.20
2019-01-24T04:44:28.715Z,24.16
2019-01-24T04:45:28.706Z,24.08
2019-01-24T04:46:28.693Z,24.05
2019-01-24T04:47:28.682Z,24.10
2019-01-24T04:48:28.680Z,24.08
2019-01-24T04:49:28.660Z,24.10
2019-01-24T04:50:28.648Z,24.13
2019-01-24T04:51:28.636Z,24.12
2019-01-24T04:52:28.626Z,24.13
2019-01-24T04:53:28.625Z,24.07
2019-01-24T04:54:28.607Z,24.05
2019-01-24T04:55:28.593Z,24.07
2019-01-24T04:56:28.583Z,24.10
2019-01-24T04:57:28.571Z,24.07
2019-01-24T04:58:28.573Z,23.98
2019-01-24T04:59:28.548Z,23.98
2019-01-24T05:00:28.542Z,24.01
2019-01-24T05:01:28.525Z,23.94
2019-01-24T05:02:28.516Z,24.05
2019-01-24T05:03:28.503Z,24.02
2019-01-24T05:04:28.500Z,24.05
2019-01-24T05:05:28.486Z,24.02
2019-01-24T05:06:28.473Z,24.07
2019-01-24T05:07:28.458Z,24.00
2019-01-24T05:08:28.451Z,23.95
2019-01-24T05:09:28.448Z,23.95
2019-01-24T05:10:28.426Z,23.97
2019-01-24T05:11:28.418Z,23.92
2019-01-24T05:12:28.404Z,24.07
2019-01-24T05:13:28.393Z,24.08
2019-01-24T05:14:28.380Z,24.01
2019-01-24T05:15:28.378Z,24.00
2019-01-24T05:16:28.358Z,23.95
2019-01-24T05:17:28.349Z,24.04
2019-01-24T05:18:28.355Z,24.04
2019-01-24T05:19:28.323Z,23.90
2019-01-24T05:20:28.322Z,24.04
2019-01-24T05:21:28.303Z,23.98
2019-01-24T05:22:28.293Z,23.94
2019-01-24T05:23:28.279Z,24.00
2019-01-24T05:24:28.270Z,23.90
2019-01-24T05:25:28.271Z,23.98
2019-01-24T05:26:28.247Z,23.97
2019-01-24T05:27:28.234Z,24.00
2019-01-24T05:28:28.224Z,23.98
2019-01-24T05:29:28.214Z,23.92
2019-01-24T05:30:28.202Z,24.01
2019-01-24T05:31:28.200Z,23.98
2019-01-24T05:32:28.180Z,23.98
2019-01-24T05:33:28.167Z,24.00
2019-01-24T05:34:28.156Z,23.95
2019-01-24T05:35:34.474Z,23.94
2019-01-24T05:36:29.144Z,23.95
2019-01-24T05:37:28.123Z,24.00
2019-01-24T05:38:28.113Z,24.00
2019-01-24T05:39:28.103Z,23.87
2019-01-24T05:40:28.091Z,23.87
2019-01-24T05:41:28.091Z,23.85
2019-01-24T05:42:28.068Z,23.98
2019-01-24T05:43:28.056Z,23.87
2019-01-24T05:44:28.046Z,23.86
2019-01-24T05:45:28.035Z,23.86
2019-01-24T05:46:28.036Z,23.83
2019-01-24T05:47:28.011Z,23.90
2019-01-24T05:48:28.004Z,23.86
2019-01-24T05:49:27.991Z,23.82
2019-01-24T05:50:27.980Z,23.83
2019-01-24T05:51:27.969Z,23.90
2019-01-24T05:52:27.969Z,23.90
2019-01-24T05:53:27.944Z,23.95
2019-01-24T05:54:27.935Z,23.83
2019-01-24T05:55:27.922Z,23.95
2019-01-24T05:56:27.913Z,23.82
2019-01-24T05:57:27.911Z,23.79
2019-01-24T05:58:27.889Z,23.85
2019-01-24T05:59:27.878Z,23.79
2019-01-24T06:00:27.866Z,23.82
2019-01-24T06:01:27.856Z,23.79
2019-01-24T06:02:27.859Z,23.85
2019-01-24T06:03:27.832Z,23.79
2019-01-24T06:04:27.823Z,23.85
2019-01-24T06:05:27.811Z,23.80
2019-01-24T06:06:27.798Z,23.80
2019-01-24T06:07:27.789Z,23.80
2019-01-24T06:08:27.789Z,23.71
2019-01-24T06:09:27.766Z,23.92
2019-01-24T06:10:27.759Z,23.87
2019-01-24T06:11:27.743Z,23.89
2019-01-24T06:12:27.734Z,23.71
2019-01-24T06:13:27.731Z,23.92
2019-01-24T06:14:27.713Z,23.85
2019-01-24T06:15:27.701Z,23.85
2019-01-24T06:16:27.692Z,23.87
2019-01-24T06:17:27.678Z,23.83
2019-01-24T06:18:27.675Z,23.83
2019-01-24T06:19:27.657Z,23.85
2019-01-24T06:20:27.644Z,23.79
2019-01-24T06:21:27.637Z,23.77
2019-01-24T06:22:27.623Z,23.72
2019-01-24T06:23:27.625Z,23.77
2019-01-24T06:24:27.601Z,23.79
2019-01-24T06:25:27.588Z,23.79
2019-01-24T06:26:27.577Z,23.89
2019-01-24T06:27:27.570Z,23.79
2019-01-24T06:28:27.567Z,23.79
2019-01-24T06:29:27.545Z,23.72
2019-01-24T06:30:27.532Z,23.83
2019-01-24T06:31:27.522Z,23.87
2019-01-24T06:32:27.511Z,23.83
2019-01-24T06:33:27.513Z,23.79
2019-01-24T06:34:27.488Z,23.80
2019-01-24T06:35:27.483Z,23.79
2019-01-24T06:36:27.466Z,23.79
2019-01-24T06:37:27.456Z,23.76
2019-01-24T06:38:27.445Z,23.75
2019-01-24T06:39:27.441Z,23.80
2019-01-24T06:40:27.421Z,23.85
2019-01-24T06:41:27.410Z,23.79
2019-01-24T06:42:27.401Z,23.79
2019-01-24T06:43:27.390Z,23.79
2019-01-24T06:44:27.387Z,23.77
2019-01-24T06:45:27.367Z,23.71
2019-01-24T06:46:27.355Z,23.82
2019-01-24T06:47:27.344Z,23.68
2019-01-24T06:48:27.334Z,23.62
2019-01-24T06:49:27.330Z,23.53
2019-01-24T06:50:27.313Z,23.23
2019-01-24T06:51:27.301Z,22.44
2019-01-24T06:52:27.289Z,21.98
2019-01-24T06:53:27.278Z,21.36
2019-01-24T06:54:27.279Z,21.02
2019-01-24T06:55:27.255Z,20.74
2019-01-24T06:56:27.249Z,20.86
2019-01-24T06:57:27.234Z,21.13
2019-01-24T06:58:27.222Z,21.34
2019-01-24T06:59:27.213Z,21.67
2019-01-24T07:00:27.215Z,21.97
2019-01-24T07:01:27.190Z,22.13
2019-01-24T07:02:27.178Z,22.32
2019-01-24T07:03:27.170Z,22.38
2019-01-24T07:04:27.158Z,22.47
2019-01-24T07:05:27.154Z,22.59
2019-01-24T07:06:27.134Z,22.62
2019-01-24T07:07:27.126Z,22.68
2019-01-24T07:08:27.112Z,22.77
2019-01-24T07:09:27.102Z,22.78
2019-01-24T07:10:27.097Z,22.87
2019-01-24T07:11:27.078Z,22.82
2019-01-24T07:12:27.067Z,22.86
2019-01-24T07:13:27.057Z,22.87
2019-01-24T07:14:27.045Z,22.90
2019-01-24T07:15:27.051Z,23.01
2019-01-24T07:16:27.025Z,23.04
2019-01-24T07:17:27.012Z,22.96
2019-01-24T07:18:27.000Z,22.96
2019-01-24T07:19:26.990Z,23.08
2019-01-24T07:20:26.979Z,23.17
2019-01-24T07:21:26.977Z,23.09
2019-01-24T07:22:26.956Z,23.15
2019-01-24T07:23:26.946Z,23.15
2019-01-24T07:24:26.934Z,23.15
2019-01-24T07:25:26.922Z,23.17
2019-01-24T07:26:26.921Z,23.23
2019-01-24T07:27:26.901Z,23.19
2019-01-24T07:28:26.893Z,23.26
2019-01-24T07:29:26.877Z,23.23
2019-01-24T07:30:26.867Z,23.20
2019-01-24T07:31:26.868Z,23.27
2019-01-24T07:32:26.846Z,23.22
2019-01-24T07:33:26.832Z,23.20
2019-01-24T07:34:26.827Z,23.29
2019-01-24T07:35:26.811Z,23.38
2019-01-24T07:36:26.811Z,23.32
2019-01-24T07:37:26.787Z,23.34
2019-01-24T07:38:26.780Z,23.40
2019-01-24T07:39:26.764Z,23.35
2019-01-24T07:40:26.756Z,23.43
2019-01-24T07:41:26.743Z,23.35
2019-01-24T07:42:26.739Z,23.34
2019-01-24T07:43:26.722Z,23.31
2019-01-24T07:44:26.709Z,23.40
2019-01-24T07:45:26.697Z,23.35
2019-01-24T07:46:26.686Z,23.29
2019-01-24T07:47:26.683Z,23.34
2019-01-24T07:48:26.663Z,23.26
2019-01-24T07:49:26.652Z,23.29
2019-01-24T07:50:26.643Z,23.32
2019-01-24T07:51:26.630Z,23.24
2019-01-24T07:52:26.629Z,23.35
2019-01-24T07:53:26.608Z,23.38
2019-01-24T07:54:26.598Z,23.38
2019-01-24T07:55:26.582Z,23.38
2019-01-24T07:56:26.574Z,23.35
2019-01-24T07:57:26.575Z,23.31
2019-01-24T07:58:26.549Z,23.31
2019-01-24T07:59:26.540Z,23.34
2019-01-24T08:00:26.527Z,23.31
2019-01-24T08:01:26.518Z,23.32
2019-01-24T08:02:26.509Z,23.29
2019-01-24T08:03:26.502Z,23.22
2019-01-24T08:04:26.482Z,23.32
2019-01-24T08:05:26.470Z,23.29
2019-01-24T08:06:26.460Z,23.38
2019-01-24T08:07:26.448Z,23.39
2019-01-24T08:08:26.461Z,23.46
2019-01-24T08:09:26.428Z,23.45
2019-01-24T08:10:26.415Z,23.45
2019-01-24T08:11:26.405Z,23.46
2019-01-24T08:12:26.391Z,23.40
2019-01-24T08:13:26.389Z,23.38
2019-01-24T08:14:26.369Z,23.34
2019-01-24T08:15:26.358Z,23.35
2019-01-24T08:16:26.347Z,23.49
2019-01-24T08:17:26.337Z,23.45
2019-01-24T08:18:26.333Z,23.40
2019-01-24T08:19:26.315Z,23.34
2019-01-24T08:20:26.307Z,23.31
2019-01-24T08:21:26.291Z,23.32
2019-01-24T08:22:26.280Z,23.35
2019-01-24T08:23:26.277Z,23.31
2019-01-24T08:24:26.259Z,23.31
2019-01-24T08:25:26.286Z,23.29
2019-01-24T08:26:26.234Z,23.39
2019-01-24T08:27:26.223Z,23.34
2019-01-24T08:28:26.223Z,23.32
2019-01-24T08:29:26.204Z,23.34
2019-01-24T08:30:26.189Z,23.31
2019-01-24T08:31:26.178Z,23.32
2019-01-24T08:32:26.169Z,23.27
2019-01-24T08:33:26.168Z,23.22
2019-01-24T08:34:26.149Z,23.20
2019-01-24T08:35:26.134Z,23.32
2019-01-24T08:36:26.122Z,23.32
2019-01-24T08:37:26.110Z,23.17
2019-01-24T08:38:26.099Z,23.26
2019-01-24T08:39:26.097Z,23.26
2019-01-24T08:40:26.081Z,23.35
2019-01-24T08:41:26.068Z,23.24
2019-01-24T08:42:26.053Z,23.24
2019-01-24T08:43:26.042Z,23.26
2019-01-24T08:44:26.042Z,23.22
2019-01-24T08:45:26.020Z,23.17
2019-01-24T08:46:26.013Z,23.15
2019-01-24T08:47:25.998Z,23.26
2019-01-24T08:48:25.989Z,23.23
2019-01-24T08:49:25.990Z,23.15
2019-01-24T08:50:25.966Z,23.09
2019-01-24T08:51:25.955Z,23.11
2019-01-24T08:52:25.963Z,23.14
2019-01-24T08:53:25.964Z,23.15
2019-01-24T08:54:25.922Z,23.09
2019-01-24T08:55:25.919Z,23.07
2019-01-24T08:56:25.899Z,23.09
2019-01-24T08:57:25.887Z,23.07
2019-01-24T08:58:25.877Z,23.09
2019-01-24T08:59:29.473Z,23.15
2019-01-24T09:00:25.863Z,23.11
2019-01-24T09:01:25.846Z,23.15
2019-01-24T09:02:25.834Z,23.15
2019-01-24T09:03:25.822Z,23.08
2019-01-24T09:04:25.812Z,23.05
2019-01-24T09:05:25.808Z,23.05
2019-01-24T09:06:25.789Z,23.02
2019-01-24T09:07:25.778Z,23.04
2019-01-24T09:08:25.767Z,22.94
2019-01-24T09:09:25.761Z,22.94
2019-01-24T09:10:25.759Z,22.92
2019-01-24T09:11:25.737Z,22.92
2019-01-24T09:12:30.223Z,23.01
2019-01-24T09:13:25.713Z,22.97
2019-01-24T09:14:25.717Z,22.87
2019-01-24T09:15:25.692Z,22.99
2019-01-24T09:16:25.686Z,22.93
2019-01-24T09:17:25.671Z,22.86
2019-01-24T09:18:25.655Z,22.89
2019-01-24T09:19:25.644Z,22.82
2019-01-24T09:20:25.636Z,22.93
2019-01-24T09:21:25.632Z,22.86
2019-01-24T09:22:25.613Z,22.86
2019-01-24T09:23:25.601Z,22.90
2019-01-24T09:24:25.590Z,22.94
2019-01-24T09:25:25.580Z,22.90
2019-01-24T09:26:25.575Z,22.82
2019-01-24T09:27:25.559Z,22.80
2019-01-24T09:28:25.548Z,22.86
2019-01-24T09:29:25.534Z,22.80
2019-01-24T09:30:25.535Z,22.80
2019-01-24T09:31:25.527Z,22.87
2019-01-24T09:32:25.503Z,22.86
2019-01-24T09:33:25.491Z,22.82
2019-01-24T09:34:25.503Z,22.78
2019-01-24T09:35:25.467Z,22.83
2019-01-24T09:36:29.186Z,22.78
2019-01-24T09:37:25.454Z,22.77
2019-01-24T09:38:25.434Z,22.84
2019-01-24T09:39:25.425Z,22.82
2019-01-24T09:40:25.417Z,22.77
2019-01-24T09:41:25.403Z,22.77
2019-01-24T09:42:25.399Z,22.77
2019-01-24T09:43:25.381Z,22.78
2019-01-24T09:44:25.370Z,22.72
2019-01-24T09:45:25.359Z,22.74
2019-01-24T09:46:25.350Z,22.78
2019-01-24T09:47:25.343Z,22.71
2019-01-24T09:48:25.326Z,22.69
2019-01-24T09:49:25.313Z,22.69
2019-01-24T09:50:25.302Z,22.71
2019-01-24T09:51:25.292Z,22.72
2019-01-24T09:52:25.293Z,22.71
2019-01-24T09:53:25.270Z,22.72
2019-01-24T09:54:25.257Z,22.77
2019-01-24T09:55:25.246Z,22.69
2019-01-24T09:56:25.234Z,22.75
2019-01-24T09:57:25.224Z,22.78
2019-01-24T09:58:25.223Z,22.72
2019-01-24T09:59:25.203Z,22.71
2019-01-24T10:00:25.195Z,22.75
2019-01-24T10:01:25.179Z,22.69
2019-01-24T10:02:25.168Z,22.77
2019-01-24T10:03:25.168Z,22.67
2019-01-24T10:04:25.149Z,22.77
2019-01-24T10:05:25.135Z,22.75
2019-01-24T10:06:25.126Z,22.74
2019-01-24T10:07:25.115Z,22.77
2019-01-24T10:08:25.111Z,22.69
2019-01-24T10:09:25.092Z,22.77
2019-01-24T10:10:25.081Z,22.65
2019-01-24T10:11:25.073Z,22.74
2019-01-24T10:12:25.061Z,22.67
2019-01-24T10:13:25.057Z,22.69
2019-01-24T10:14:25.038Z,22.65
2019-01-24T10:15:25.028Z,22.77
2019-01-24T10:16:25.013Z,22.67
2019-01-24T10:17:25.005Z,22.71
2019-01-24T10:18:25.001Z,22.71
2019-01-24T10:19:24.981Z,22.72
2019-01-24T10:20:24.969Z,22.71
2019-01-24T10:21:24.959Z,22.67
2019-01-24T10:22:24.948Z,22.53
2019-01-24T10:23:24.952Z,22.71
2019-01-24T10:24:24.928Z,22.71
2019-01-24T10:25:24.914Z,22.57
2019-01-24T10:26:24.904Z,22.60
2019-01-24T10:27:24.892Z,22.62
2019-01-24T10:28:24.880Z,22.60
2019-01-24T10:29:24.879Z,22.53
2019-01-24T10:30:24.858Z,22.62
2019-01-24T10:31:24.848Z,22.71
2019-01-24T10:32:24.841Z,22.64
2019-01-24T10:33:24.825Z,22.69
2019-01-24T10:34:24.823Z,22.62
2019-01-24T10:35:24.807Z,22.77
2019-01-24T10:36:24.802Z,22.69
2019-01-24T10:37:24.783Z,22.57
2019-01-24T10:38:24.772Z,22.56
2019-01-24T10:39:24.767Z,22.62
2019-01-24T10:40:24.750Z,22.59
2019-01-24T10:41:24.741Z,22.57
2019-01-24T10:42:24.728Z,22.67
2019-01-24T10:43:24.714Z,22.62
2019-01-24T10:44:24.717Z,22.64
2019-01-24T10:45:24.694Z,22.72
2019-01-24T10:46:24.682Z,22.57
2019-01-24T10:47:24.670Z,22.64
2019-01-24T10:48:24.659Z,22.67
2019-01-24T10:49:24.664Z,22.62
2019-01-24T10:50:24.637Z,22.60
2019-01-24T10:51:24.627Z,22.68
2019-01-24T10:52:24.618Z,22.65
2019-01-24T10:53:24.610Z,22.52
2019-01-24T10:54:24.593Z,22.62
2019-01-24T10:55:24.591Z,22.56
2019-01-24T10:56:24.570Z,22.68
2019-01-24T10:57:24.561Z,22.68
2019-01-24T10:58:24.548Z,22.67
2019-01-24T10:59:24.539Z,22.67
2019-01-24T11:00:24.542Z,22.68
2019-01-24T11:01:24.515Z,22.64
2019-01-24T11:02:24.504Z,22.71
2019-01-24T11:03:24.497Z,22.64
2019-01-24T11:04:24.484Z,22.64
2019-01-24T11:05:24.479Z,22.69
2019-01-24T11:06:24.459Z,22.57
2019-01-24T11:07:24.449Z,22.65
2019-01-24T11:08:24.447Z,22.64
2019-01-24T11:09:24.428Z,22.56
2019-01-24T11:10:24.417Z,22.62
2019-01-24T11:11:24.414Z,22.57
2019-01-24T11:12:24.393Z,22.68
2019-01-24T11:13:24.382Z,22.65
2019-01-24T11:14:24.371Z,22.67
2019-01-24T11:15:24.360Z,22.65
2019-01-24T11:16:24.359Z,22.67
2019-01-24T11:17:24.337Z,22.60
2019-01-24T11:18:24.333Z,22.65
2019-01-24T11:19:24.316Z,22.59
2019-01-24T11:20:24.304Z,22.57
2019-01-24T11:21:24.302Z,22.57
2019-01-24T11:22:24.284Z,22.68
2019-01-24T11:23:24.272Z,22.62
2019-01-24T11:24:24.261Z,22.57
2019-01-24T11:25:24.251Z,22.56
2019-01-24T11:26:24.254Z,22.64
2019-01-24T11:27:24.229Z,22.60
2019-01-24T11:28:24.217Z,22.56
2019-01-24T11:29:24.209Z,22.57
2019-01-24T11:30:24.194Z,22.52
2019-01-24T11:31:24.185Z,22.60
2019-01-24T11:32:24.188Z,22.59
2019-01-24T11:33:24.161Z,22.57
2019-01-24T11:34:24.150Z,22.65
2019-01-24T11:35:24.139Z,22.64
2019-01-24T11:36:24.132Z,22.60
2019-01-24T11:37:24.130Z,22.68
2019-01-24T11:38:24.106Z,22.64
2019-01-24T11:39:24.094Z,22.52
2019-01-24T11:40:24.085Z,22.54
2019-01-24T11:41:24.075Z,22.56
2019-01-24T11:42:24.072Z,22.57
2019-01-24T11:43:24.051Z,22.60
2019-01-24T11:44:24.040Z,22.59
2019-01-24T11:45:24.029Z,22.62
2019-01-24T11:46:24.017Z,22.56
2019-01-24T11:47:24.015Z,22.54
2019-01-24T11:48:23.997Z,22.69
2019-01-24T11:49:23.984Z,22.60
2019-01-24T11:50:23.975Z,22.57
2019-01-24T11:51:23.963Z,22.53
2019-01-24T11:52:23.964Z,22.59
2019-01-24T11:53:23.943Z,22.50
2019-01-24T11:54:23.932Z,22.47
2019-01-24T11:55:23.923Z,22.52
2019-01-24T11:56:23.908Z,22.54
2019-01-24T11:57:23.896Z,22.56
2019-01-24T11:58:23.893Z,22.59
2019-01-24T11:59:23.885Z,22.64
2019-01-24T12:00:23.864Z,22.46
2019-01-24T12:01:23.851Z,22.54
2019-01-24T12:02:23.840Z,22.46
2019-01-24T12:03:23.837Z,22.57
2019-01-24T12:04:23.824Z,22.57
2019-01-24T12:05:23.807Z,22.50
2019-01-24T12:06:23.797Z,22.47
2019-01-24T12:07:23.788Z,22.56
2019-01-24T12:08:23.786Z,22.59
2019-01-24T12:09:23.763Z,22.56
2019-01-24T12:10:23.752Z,22.47
2019-01-24T12:11:23.741Z,22.56
2019-01-24T12:12:23.731Z,22.60
2019-01-24T12:13:23.729Z,22.56
2019-01-24T12:14:23.708Z,22.53
2019-01-24T12:15:23.696Z,22.54
2019-01-24T12:16:23.686Z,22.56
2019-01-24T12:17:24.804Z,22.52
2019-01-24T12:18:23.673Z,22.49
2019-01-24T12:19:23.653Z,22.49
2019-01-24T12:20:23.643Z,22.50
2019-01-24T12:21:23.631Z,22.56
2019-01-24T12:22:23.618Z,22.47
2019-01-24T12:23:23.618Z,22.44
2019-01-24T12:24:23.598Z,22.47
2019-01-24T12:25:23.588Z,22.54
2019-01-24T12:26:23.577Z,22.46
2019-01-24T12:27:23.563Z,22.50
2019-01-24T12:28:23.566Z,22.56
2019-01-24T12:29:23.544Z,22.47
2019-01-24T12:30:23.535Z,22.54
2019-01-24T12:31:23.520Z,22.59
2019-01-24T12:32:23.509Z,22.60
2019-01-24T12:33:23.498Z,22.56
2019-01-24T12:34:23.497Z,22.56
2019-01-24T12:35:23.475Z,22.47
2019-01-24T12:36:23.466Z,22.49
2019-01-24T12:37:23.467Z,22.56
2019-01-24T12:38:23.446Z,22.49
2019-01-24T12:39:23.439Z,22.50
2019-01-24T12:40:23.422Z,22.53
2019-01-24T12:41:23.410Z,22.52
2019-01-24T12:42:23.398Z,22.50
2019-01-24T12:43:23.387Z,22.46
2019-01-24T12:44:23.388Z,22.52
2019-01-24T12:45:23.367Z,22.49
2019-01-24T12:46:23.353Z,22.52
2019-01-24T12:47:23.345Z,22.54
2019-01-24T12:48:23.334Z,22.46
2019-01-24T12:49:23.331Z,22.49
2019-01-24T12:50:23.316Z,22.50
2019-01-24T12:51:23.298Z,22.50
2019-01-24T12:52:23.287Z,22.59